sensor_id;sensor_type;location;lat;lon;timestamp;pressure;altitude;pressure_sealevel;temperature;humidity
72896;BME280;61036;53.224;6.554;2023-01-19T00:00:11;99688.50;;;3.04;nan
72896;BME280;61036;53.224;6.554;2023-01-19T00:02:37;99690.06;;;3.08;nan
72896;BME280;61036;53.224;6.554;2023-01-19T00:05:04;99687.97;;;2.98;nan
72896;BME280;61036;53.224;6.554;2023-01-19T00:07:33;99684.91;;;2.90;nan
72896;BME280;61036;53.224;6.554;2023-01-19T00:09:59;99693.94;;;3.16;nan
72896;BME280;61036;53.224;6.554;2023-01-19T00:12:25;99689.84;;;3.11;nan
72896;BME280;61036;53.224;6.554;2023-01-19T00:14:51;99695.56;;;3.05;nan
72896;BME280;61036;53.224;6.554;2023-01-19T00:17:17;99692.97;;;3.03;nan
72896;BME280;61036;53.224;6.554;2023-01-19T00:19:43;99689.28;;;2.91;nan
72896;BME280;61036;53.224;6.554;2023-01-19T00:22:08;99686.81;;;2.88;nan
72896;BME280;61036;53.224;6.554;2023-01-19T00:24:35;99686.41;;;2.94;nan
72896;BME280;61036;53.224;6.554;2023-01-19T00:27:00;99692.78;;;3.06;nan
72896;BME280;61036;53.224;6.554;2023-01-19T00:29:29;99686.06;;;2.86;nan
72896;BME280;61036;53.224;6.554;2023-01-19T00:32:00;99686.16;;;2.99;nan
72896;BME280;61036;53.224;6.554;2023-01-19T00:34:26;99680.53;;;2.75;nan
72896;BME280;61036;53.224;6.554;2023-01-19T00:36:52;99682.22;;;2.76;nan
72896;BME280;61036;53.224;6.554;2023-01-19T00:39:20;99680.75;;;2.86;nan
72896;BME280;61036;53.224;6.554;2023-01-19T00:41:45;99683.94;;;2.63;nan
72896;BME280;61036;53.224;6.554;2023-01-19T00:44:29;99688.41;;;2.77;nan
72896;BME280;61036;53.224;6.554;2023-01-19T00:46:55;99691.94;;;2.77;nan
72896;BME280;61036;53.224;6.554;2023-01-19T00:49:25;99696.41;;;2.91;nan
72896;BME280;61036;53.224;6.554;2023-01-19T00:51:51;99702.22;;;2.83;nan
72896;BME280;61036;53.224;6.554;2023-01-19T00:54:17;99703.47;;;2.92;nan
72896;BME280;61036;53.224;6.554;2023-01-19T00:56:43;99705.16;;;2.93;nan
72896;BME280;61036;53.224;6.554;2023-01-19T00:59:09;99702.59;;;3.06;nan
72896;BME280;61036;53.224;6.554;2023-01-19T01:01:37;99696.13;;;2.95;nan
72896;BME280;61036;53.224;6.554;2023-01-19T01:04:03;99707.34;;;3.01;nan
72896;BME280;61036;53.224;6.554;2023-01-19T01:06:29;99707.16;;;3.04;nan
72896;BME280;61036;53.224;6.554;2023-01-19T01:08:54;99712.28;;;3.07;nan
72896;BME280;61036;53.224;6.554;2023-01-19T01:11:20;99714.03;;;3.08;nan
72896;BME280;61036;53.224;6.554;2023-01-19T01:13:46;99706.50;;;3.14;nan
72896;BME280;61036;53.224;6.554;2023-01-19T01:16:14;99717.91;;;3.16;nan
72896;BME280;61036;53.224;6.554;2023-01-19T01:18:41;99715.25;;;3.16;nan
72896;BME280;61036;53.224;6.554;2023-01-19T01:21:07;99713.72;;;3.12;nan
72896;BME280;61036;53.224;6.554;2023-01-19T01:23:33;99715.34;;;3.15;nan
72896;BME280;61036;53.224;6.554;2023-01-19T01:25:59;99720.22;;;3.23;nan
72896;BME280;61036;53.224;6.554;2023-01-19T01:28:25;99720.09;;;3.10;nan
72896;BME280;61036;53.224;6.554;2023-01-19T01:30:53;99719.75;;;3.16;nan
72896;BME280;61036;53.224;6.554;2023-01-19T01:33:18;99725.34;;;3.26;nan
72896;BME280;61036;53.224;6.554;2023-01-19T01:35:47;99724.69;;;3.22;nan
72896;BME280;61036;53.224;6.554;2023-01-19T01:38:13;99727.34;;;3.22;nan
72896;BME280;61036;53.224;6.554;2023-01-19T01:40:40;99727.03;;;3.27;nan
72896;BME280;61036;53.224;6.554;2023-01-19T01:43:15;99722.19;;;3.33;nan
72896;BME280;61036;53.224;6.554;2023-01-19T01:45:43;99731.59;;;3.25;nan
72896;BME280;61036;53.224;6.554;2023-01-19T01:48:16;99722.75;;;3.53;nan
72896;BME280;61036;53.224;6.554;2023-01-19T01:50:47;99729.31;;;3.47;nan
72896;BME280;61036;53.224;6.554;2023-01-19T01:53:33;99728.47;;;3.47;nan
72896;BME280;61036;53.224;6.554;2023-01-19T01:56:02;99728.81;;;3.55;nan
72896;BME280;61036;53.224;6.554;2023-01-19T01:58:31;99731.13;;;3.47;nan
72896;BME280;61036;53.224;6.554;2023-01-19T02:00:57;99738.28;;;3.46;nan
72896;BME280;61036;53.224;6.554;2023-01-19T02:03:44;99738.63;;;3.54;nan
72896;BME280;61036;53.224;6.554;2023-01-19T02:06:11;99733.97;;;3.43;nan
72896;BME280;61036;53.224;6.554;2023-01-19T02:08:41;99741.13;;;3.29;nan
72896;BME280;61036;53.224;6.554;2023-01-19T02:11:27;99738.94;;;3.50;nan
72896;BME280;61036;53.224;6.554;2023-01-19T02:14:12;99742.75;;;3.31;nan
72896;BME280;61036;53.224;6.554;2023-01-19T02:16:38;99744.75;;;3.13;nan
72896;BME280;61036;53.224;6.554;2023-01-19T02:19:06;99755.13;;;3.32;nan
72896;BME280;61036;53.224;6.554;2023-01-19T02:21:53;99745.50;;;3.15;nan
72896;BME280;61036;53.224;6.554;2023-01-19T02:24:20;99750.91;;;3.00;nan
72896;BME280;61036;53.224;6.554;2023-01-19T02:26:47;99748.47;;;3.11;nan
72896;BME280;61036;53.224;6.554;2023-01-19T02:29:21;99754.53;;;3.13;nan
72896;BME280;61036;53.224;6.554;2023-01-19T02:31:48;99760.03;;;3.10;nan
72896;BME280;61036;53.224;6.554;2023-01-19T02:34:16;99754.44;;;3.29;nan
72896;BME280;61036;53.224;6.554;2023-01-19T02:36:49;99757.31;;;3.26;nan
72896;BME280;61036;53.224;6.554;2023-01-19T02:39:18;99753.41;;;3.17;nan
72896;BME280;61036;53.224;6.554;2023-01-19T02:41:51;99760.16;;;3.23;nan
72896;BME280;61036;53.224;6.554;2023-01-19T02:44:19;99758.06;;;3.28;nan
72896;BME280;61036;53.224;6.554;2023-01-19T02:46:45;99750.81;;;3.15;nan
72896;BME280;61036;53.224;6.554;2023-01-19T02:49:11;99756.81;;;3.05;nan
72896;BME280;61036;53.224;6.554;2023-01-19T02:51:38;99750.47;;;3.07;nan
72896;BME280;61036;53.224;6.554;2023-01-19T02:54:16;99763.19;;;3.31;nan
72896;BME280;61036;53.224;6.554;2023-01-19T03:07:55;99768.91;;;3.53;nan
72896;BME280;61036;53.224;6.554;2023-01-19T03:13:53;99774.53;;;3.20;nan
72896;BME280;61036;53.224;6.554;2023-01-19T03:16:45;99766.44;;;3.07;nan
72896;BME280;61036;53.224;6.554;2023-01-19T03:22:21;99771.94;;;2.90;nan
72896;BME280;61036;53.224;6.554;2023-01-19T03:24:50;99782.41;;;2.93;nan
72896;BME280;61036;53.224;6.554;2023-01-19T03:27:30;99780.09;;;2.87;nan
72896;BME280;61036;53.224;6.554;2023-01-19T03:30:10;99781.34;;;2.95;nan
72896;BME280;61036;53.224;6.554;2023-01-19T03:32:47;99782.41;;;3.21;nan
72896;BME280;61036;53.224;6.554;2023-01-19T03:35:15;99785.66;;;3.27;nan
72896;BME280;61036;53.224;6.554;2023-01-19T03:37:44;99792.19;;;3.07;nan
72896;BME280;61036;53.224;6.554;2023-01-19T03:40:12;99793.53;;;3.00;nan
72896;BME280;61036;53.224;6.554;2023-01-19T03:42:39;99789.81;;;3.02;nan
72896;BME280;61036;53.224;6.554;2023-01-19T03:45:06;99798.78;;;3.01;nan
72896;BME280;61036;53.224;6.554;2023-01-19T03:47:34;99792.50;;;3.02;nan
72896;BME280;61036;53.224;6.554;2023-01-19T03:50:01;99793.16;;;3.06;nan
72896;BME280;61036;53.224;6.554;2023-01-19T03:52:30;99793.53;;;3.00;nan
72896;BME280;61036;53.224;6.554;2023-01-19T03:55:00;99799.16;;;3.09;nan
72896;BME280;61036;53.224;6.554;2023-01-19T03:57:38;99796.59;;;3.08;nan
72896;BME280;61036;53.224;6.554;2023-01-19T04:00:04;99800.84;;;2.96;nan
72896;BME280;61036;53.224;6.554;2023-01-19T04:02:37;99802.09;;;3.05;nan
72896;BME280;61036;53.224;6.554;2023-01-19T04:05:03;99805.81;;;3.02;nan
72896;BME280;61036;53.224;6.554;2023-01-19T04:07:29;99802.97;;;3.05;nan
72896;BME280;61036;53.224;6.554;2023-01-19T04:09:54;99798.28;;;3.09;nan
72896;BME280;61036;53.224;6.554;2023-01-19T04:12:36;99802.78;;;3.08;nan
72896;BME280;61036;53.224;6.554;2023-01-19T04:15:02;99807.44;;;3.05;nan
72896;BME280;61036;53.224;6.554;2023-01-19T04:17:30;99800.00;;;3.10;nan
72896;BME280;61036;53.224;6.554;2023-01-19T04:20:24;99805.75;;;3.32;nan
72896;BME280;61036;53.224;6.554;2023-01-19T04:22:51;99815.53;;;3.17;nan
72896;BME280;61036;53.224;6.554;2023-01-19T04:25:17;99823.63;;;3.30;nan
72896;BME280;61036;53.224;6.554;2023-01-19T04:27:45;99813.31;;;3.10;nan
72896;BME280;61036;53.224;6.554;2023-01-19T04:30:12;99821.31;;;3.10;nan
72896;BME280;61036;53.224;6.554;2023-01-19T04:32:41;99821.13;;;3.13;nan
72896;BME280;61036;53.224;6.554;2023-01-19T04:35:08;99824.34;;;3.04;nan
72896;BME280;61036;53.224;6.554;2023-01-19T04:37:34;99827.47;;;2.96;nan
72896;BME280;61036;53.224;6.554;2023-01-19T04:40:00;99828.09;;;2.85;nan
72896;BME280;61036;53.224;6.554;2023-01-19T04:42:26;99835.69;;;3.07;nan
72896;BME280;61036;53.224;6.554;2023-01-19T04:44:52;99840.06;;;3.08;nan
72896;BME280;61036;53.224;6.554;2023-01-19T04:47:18;99840.28;;;3.19;nan
72896;BME280;61036;53.224;6.554;2023-01-19T04:49:46;99843.69;;;3.21;nan
72896;BME280;61036;53.224;6.554;2023-01-19T04:52:12;99846.47;;;3.20;nan
72896;BME280;61036;53.224;6.554;2023-01-19T04:54:39;99851.56;;;3.09;nan
72896;BME280;61036;53.224;6.554;2023-01-19T04:57:04;99855.13;;;3.24;nan
72896;BME280;61036;53.224;6.554;2023-01-19T04:59:30;99854.06;;;3.26;nan
72896;BME280;61036;53.224;6.554;2023-01-19T05:01:56;99863.22;;;3.36;nan
72896;BME280;61036;53.224;6.554;2023-01-19T05:04:23;99862.53;;;3.18;nan
72896;BME280;61036;53.224;6.554;2023-01-19T05:06:50;99855.94;;;3.10;nan
72896;BME280;61036;53.224;6.554;2023-01-19T05:09:19;99859.88;;;3.33;nan
72896;BME280;61036;53.224;6.554;2023-01-19T05:11:44;99863.50;;;3.32;nan
72896;BME280;61036;53.224;6.554;2023-01-19T05:14:11;99861.44;;;3.07;nan
72896;BME280;61036;53.224;6.554;2023-01-19T05:16:48;99866.41;;;3.13;nan
72896;BME280;61036;53.224;6.554;2023-01-19T05:19:14;99874.81;;;3.21;nan
72896;BME280;61036;53.224;6.554;2023-01-19T05:22:17;99883.41;;;3.40;nan
72896;BME280;61036;53.224;6.554;2023-01-19T05:24:54;99887.13;;;3.38;nan
72896;BME280;61036;53.224;6.554;2023-01-19T05:27:20;99892.88;;;3.16;nan
72896;BME280;61036;53.224;6.554;2023-01-19T05:29:46;99898.63;;;3.38;nan
72896;BME280;61036;53.224;6.554;2023-01-19T05:32:12;99897.47;;;3.28;nan
72896;BME280;61036;53.224;6.554;2023-01-19T05:34:38;99905.28;;;3.46;nan
72896;BME280;61036;53.224;6.554;2023-01-19T05:37:03;99910.44;;;3.49;nan
72896;BME280;61036;53.224;6.554;2023-01-19T05:39:32;99908.72;;;3.48;nan
72896;BME280;61036;53.224;6.554;2023-01-19T05:41:58;99906.69;;;3.37;nan
72896;BME280;61036;53.224;6.554;2023-01-19T05:44:24;99918.63;;;3.31;nan
72896;BME280;61036;53.224;6.554;2023-01-19T05:46:50;99927.34;;;3.33;nan
72896;BME280;61036;53.224;6.554;2023-01-19T05:49:16;99923.56;;;3.37;nan
72896;BME280;61036;53.224;6.554;2023-01-19T05:51:42;99930.97;;;3.32;nan
72896;BME280;61036;53.224;6.554;2023-01-19T05:54:12;99938.47;;;3.56;nan
72896;BME280;61036;53.224;6.554;2023-01-19T05:56:38;99926.16;;;3.53;nan
72896;BME280;61036;53.224;6.554;2023-01-19T05:59:04;99922.28;;;3.59;nan
72896;BME280;61036;53.224;6.554;2023-01-19T06:01:32;99920.72;;;3.55;nan
72896;BME280;61036;53.224;6.554;2023-01-19T06:04:03;99924.94;;;3.59;nan
72896;BME280;61036;53.224;6.554;2023-01-19T06:06:29;99920.94;;;3.66;nan
72896;BME280;61036;53.224;6.554;2023-01-19T06:08:54;99916.91;;;3.44;nan
72896;BME280;61036;53.224;6.554;2023-01-19T06:11:20;99923.59;;;3.52;nan
72896;BME280;61036;53.224;6.554;2023-01-19T06:13:46;99929.97;;;3.63;nan
72896;BME280;61036;53.224;6.554;2023-01-19T06:16:13;99934.75;;;3.73;nan
72896;BME280;61036;53.224;6.554;2023-01-19T06:18:39;99918.66;;;3.74;nan
72896;BME280;61036;53.224;6.554;2023-01-19T06:21:06;99916.28;;;3.98;nan
72896;BME280;61036;53.224;6.554;2023-01-19T06:23:33;99915.31;;;4.13;nan
72896;BME280;61036;53.224;6.554;2023-01-19T06:25:59;99929.31;;;4.17;nan
72896;BME280;61036;53.224;6.554;2023-01-19T06:28:26;99934.47;;;4.20;nan
72896;BME280;61036;53.224;6.554;2023-01-19T06:30:52;99938.50;;;4.13;nan
72896;BME280;61036;53.224;6.554;2023-01-19T06:33:18;99936.19;;;4.07;nan
72896;BME280;61036;53.224;6.554;2023-01-19T06:35:46;99940.88;;;4.03;nan
72896;BME280;61036;53.224;6.554;2023-01-19T06:38:12;99935.06;;;3.82;nan
72896;BME280;61036;53.224;6.554;2023-01-19T06:40:39;99950.84;;;3.71;nan
72896;BME280;61036;53.224;6.554;2023-01-19T06:43:05;99953.16;;;3.77;nan
72896;BME280;61036;53.224;6.554;2023-01-19T06:45:30;99959.34;;;3.78;nan
72896;BME280;61036;53.224;6.554;2023-01-19T06:47:56;99960.66;;;3.71;nan
72896;BME280;61036;53.224;6.554;2023-01-19T06:50:21;99960.44;;;3.59;nan
72896;BME280;61036;53.224;6.554;2023-01-19T06:52:51;99960.78;;;3.39;nan
72896;BME280;61036;53.224;6.554;2023-01-19T06:55:16;99972.16;;;3.27;nan
72896;BME280;61036;53.224;6.554;2023-01-19T06:57:43;99978.34;;;3.27;nan
72896;BME280;61036;53.224;6.554;2023-01-19T07:00:12;99992.44;;;3.29;nan
72896;BME280;61036;53.224;6.554;2023-01-19T07:02:42;99993.59;;;3.39;nan
72896;BME280;61036;53.224;6.554;2023-01-19T07:05:11;100007.78;;;3.40;nan
72896;BME280;61036;53.224;6.554;2023-01-19T07:07:38;100004.81;;;3.30;nan
72896;BME280;61036;53.224;6.554;2023-01-19T07:10:08;100009.59;;;3.39;nan
72896;BME280;61036;53.224;6.554;2023-01-19T07:12:36;100002.97;;;3.47;nan
72896;BME280;61036;53.224;6.554;2023-01-19T07:15:06;100011.53;;;3.52;nan
72896;BME280;61036;53.224;6.554;2023-01-19T07:17:32;100015.16;;;3.51;nan
72896;BME280;61036;53.224;6.554;2023-01-19T07:19:58;100018.91;;;3.62;nan
72896;BME280;61036;53.224;6.554;2023-01-19T07:22:23;100033.22;;;3.61;nan
72896;BME280;61036;53.224;6.554;2023-01-19T07:24:49;100029.63;;;3.77;nan
72896;BME280;61036;53.224;6.554;2023-01-19T07:27:16;100031.38;;;3.92;nan
72896;BME280;61036;53.224;6.554;2023-01-19T07:29:42;100045.63;;;3.91;nan
72896;BME280;61036;53.224;6.554;2023-01-19T07:32:14;100051.38;;;3.99;nan
72896;BME280;61036;53.224;6.554;2023-01-19T07:34:41;100048.78;;;3.83;nan
72896;BME280;61036;53.224;6.554;2023-01-19T07:37:07;100057.94;;;3.79;nan
72896;BME280;61036;53.224;6.554;2023-01-19T07:39:32;100062.19;;;3.82;nan
72896;BME280;61036;53.224;6.554;2023-01-19T07:42:28;100081.81;;;3.81;nan
72896;BME280;61036;53.224;6.554;2023-01-19T07:44:54;100086.06;;;3.69;nan
72896;BME280;61036;53.224;6.554;2023-01-19T07:47:20;100096.50;;;3.88;nan
72896;BME280;61036;53.224;6.554;2023-01-19T07:49:58;100083.50;;;3.98;nan
72896;BME280;61036;53.224;6.554;2023-01-19T07:52:27;100101.69;;;4.05;nan
72896;BME280;61036;53.224;6.554;2023-01-19T07:55:15;100106.09;;;4.21;nan
72896;BME280;61036;53.224;6.554;2023-01-19T07:57:41;100102.78;;;4.17;nan
72896;BME280;61036;53.224;6.554;2023-01-19T08:00:07;100105.19;;;4.22;nan
72896;BME280;61036;53.224;6.554;2023-01-19T08:02:39;100108.09;;;4.17;nan
72896;BME280;61036;53.224;6.554;2023-01-19T08:05:05;100110.41;;;4.23;nan
72896;BME280;61036;53.224;6.554;2023-01-19T08:07:33;100112.59;;;4.17;nan
72896;BME280;61036;53.224;6.554;2023-01-19T08:09:59;100114.13;;;4.21;nan
72896;BME280;61036;53.224;6.554;2023-01-19T08:12:27;100112.31;;;4.21;nan
72896;BME280;61036;53.224;6.554;2023-01-19T08:14:55;100113.00;;;4.39;nan
72896;BME280;61036;53.224;6.554;2023-01-19T08:17:21;100115.78;;;4.38;nan
72896;BME280;61036;53.224;6.554;2023-01-19T08:19:47;100115.88;;;4.50;nan
72896;BME280;61036;53.224;6.554;2023-01-19T08:22:14;100122.06;;;4.51;nan
72896;BME280;61036;53.224;6.554;2023-01-19T08:24:39;100118.66;;;4.49;nan
72896;BME280;61036;53.224;6.554;2023-01-19T08:27:05;100132.56;;;4.68;nan
72896;BME280;61036;53.224;6.554;2023-01-19T08:29:31;100130.38;;;4.75;nan
72896;BME280;61036;53.224;6.554;2023-01-19T08:31:58;100127.81;;;4.88;nan
72896;BME280;61036;53.224;6.554;2023-01-19T08:34:27;100130.97;;;4.94;nan
72896;BME280;61036;53.224;6.554;2023-01-19T08:36:57;100136.00;;;4.99;nan
72896;BME280;61036;53.224;6.554;2023-01-19T08:39:23;100129.72;;;5.00;nan
72896;BME280;61036;53.224;6.554;2023-01-19T08:41:50;100133.31;;;4.99;nan
72896;BME280;61036;53.224;6.554;2023-01-19T08:44:17;100138.66;;;5.13;nan
72896;BME280;61036;53.224;6.554;2023-01-19T08:46:43;100141.50;;;5.39;nan
72896;BME280;61036;53.224;6.554;2023-01-19T08:49:08;100139.97;;;5.89;nan
72896;BME280;61036;53.224;6.554;2023-01-19T08:51:35;100136.63;;;6.12;nan
72896;BME280;61036;53.224;6.554;2023-01-19T08:54:01;100143.47;;;6.16;nan
72896;BME280;61036;53.224;6.554;2023-01-19T08:56:27;100144.47;;;6.28;nan
72896;BME280;61036;53.224;6.554;2023-01-19T08:58:53;100149.38;;;5.82;nan
72896;BME280;61036;53.224;6.554;2023-01-19T09:01:19;100157.28;;;6.10;nan
72896;BME280;61036;53.224;6.554;2023-01-19T09:03:47;100156.50;;;7.49;nan
72896;BME280;61036;53.224;6.554;2023-01-19T09:06:14;100148.91;;;10.38;nan
72896;BME280;61036;53.224;6.554;2023-01-19T09:08:44;100147.13;;;8.02;nan
72896;BME280;61036;53.224;6.554;2023-01-19T09:11:14;100161.22;;;7.45;nan
72896;BME280;61036;53.224;6.554;2023-01-19T09:13:41;100166.63;;;6.05;nan
72896;BME280;61036;53.224;6.554;2023-01-19T09:16:10;100183.78;;;5.73;nan
72896;BME280;61036;53.224;6.554;2023-01-19T09:18:37;100183.50;;;5.22;nan
72896;BME280;61036;53.224;6.554;2023-01-19T09:21:03;100198.22;;;5.01;nan
72896;BME280;61036;53.224;6.554;2023-01-19T09:23:29;100197.25;;;5.02;nan
72896;BME280;61036;53.224;6.554;2023-01-19T09:25:58;100193.53;;;4.76;nan
72896;BME280;61036;53.224;6.554;2023-01-19T09:28:24;100198.38;;;4.69;nan
72896;BME280;61036;53.224;6.554;2023-01-19T09:30:50;100192.97;;;4.71;nan
72896;BME280;61036;53.224;6.554;2023-01-19T09:33:18;100203.03;;;4.51;nan
72896;BME280;61036;53.224;6.554;2023-01-19T09:35:45;100205.28;;;4.88;nan
72896;BME280;61036;53.224;6.554;2023-01-19T09:38:12;100206.25;;;5.15;nan
72896;BME280;61036;53.224;6.554;2023-01-19T09:40:45;100206.47;;;5.95;nan
72896;BME280;61036;53.224;6.554;2023-01-19T09:43:13;100198.69;;;6.32;nan
72896;BME280;61036;53.224;6.554;2023-01-19T09:45:52;100202.59;;;8.15;nan
72896;BME280;61036;53.224;6.554;2023-01-19T09:51:12;100195.59;;;8.60;nan
72896;BME280;61036;53.224;6.554;2023-01-19T09:53:51;100199.16;;;10.60;nan
72896;BME280;61036;53.224;6.554;2023-01-19T09:56:21;100186.03;;;12.28;nan
72896;BME280;61036;53.224;6.554;2023-01-19T09:58:48;100196.66;;;13.35;nan
72896;BME280;61036;53.224;6.554;2023-01-19T10:04:08;100192.63;;;13.49;nan
72896;BME280;61036;53.224;6.554;2023-01-19T10:06:35;100187.00;;;15.03;nan
72896;BME280;61036;53.224;6.554;2023-01-19T10:09:30;100200.63;;;14.85;nan
72896;BME280;61036;53.224;6.554;2023-01-19T10:12:09;100207.97;;;13.11;nan
72896;BME280;61036;53.224;6.554;2023-01-19T10:14:56;100211.06;;;13.91;nan
72896;BME280;61036;53.224;6.554;2023-01-19T10:20:25;100213.00;;;14.26;nan
72896;BME280;61036;53.224;6.554;2023-01-19T10:22:53;100210.09;;;14.10;nan
72896;BME280;61036;53.224;6.554;2023-01-19T10:25:21;100209.97;;;15.69;nan
72896;BME280;61036;53.224;6.554;2023-01-19T10:27:48;100214.03;;;13.70;nan
72896;BME280;61036;53.224;6.554;2023-01-19T10:30:18;100215.63;;;12.49;nan
72896;BME280;61036;53.224;6.554;2023-01-19T10:32:47;100219.16;;;12.21;nan
72896;BME280;61036;53.224;6.554;2023-01-19T10:35:16;100224.84;;;8.17;nan
72896;BME280;61036;53.224;6.554;2023-01-19T10:37:46;100225.94;;;6.64;nan
72896;BME280;61036;53.224;6.554;2023-01-19T10:40:24;100233.41;;;6.46;nan
72896;BME280;61036;53.224;6.554;2023-01-19T10:42:55;100241.28;;;6.62;nan
72896;BME280;61036;53.224;6.554;2023-01-19T10:45:26;100242.59;;;6.82;nan
72896;BME280;61036;53.224;6.554;2023-01-19T10:47:56;100253.13;;;6.45;nan
72896;BME280;61036;53.224;6.554;2023-01-19T10:50:27;100261.78;;;6.76;nan
72896;BME280;61036;53.224;6.554;2023-01-19T10:52:56;100256.19;;;6.79;nan
72896;BME280;61036;53.224;6.554;2023-01-19T10:55:30;100258.66;;;6.95;nan
72896;BME280;61036;53.224;6.554;2023-01-19T10:57:58;100251.25;;;6.73;nan
72896;BME280;61036;53.224;6.554;2023-01-19T11:00:35;100252.88;;;6.88;nan
72896;BME280;61036;53.224;6.554;2023-01-19T11:03:03;100252.97;;;6.74;nan
72896;BME280;61036;53.224;6.554;2023-01-19T11:05:32;100258.06;;;6.38;nan
72896;BME280;61036;53.224;6.554;2023-01-19T11:07:59;100256.25;;;6.52;nan
72896;BME280;61036;53.224;6.554;2023-01-19T11:10:27;100260.59;;;6.80;nan
72896;BME280;61036;53.224;6.554;2023-01-19T11:13:08;100256.47;;;6.61;nan
72896;BME280;61036;53.224;6.554;2023-01-19T11:15:42;100260.50;;;6.94;nan
72896;BME280;61036;53.224;6.554;2023-01-19T11:18:23;100259.22;;;6.87;nan
72896;BME280;61036;53.224;6.554;2023-01-19T11:21:03;100255.22;;;6.67;nan
72896;BME280;61036;53.224;6.554;2023-01-19T11:23:45;100265.13;;;6.39;nan
72896;BME280;61036;53.224;6.554;2023-01-19T11:26:14;100251.13;;;6.61;nan
72896;BME280;61036;53.224;6.554;2023-01-19T11:28:54;100252.38;;;6.83;nan
72896;BME280;61036;53.224;6.554;2023-01-19T11:34:22;100257.59;;;6.97;nan
72896;BME280;61036;53.224;6.554;2023-01-19T11:36:57;100260.81;;;7.28;nan
72896;BME280;61036;53.224;6.554;2023-01-19T11:42:15;100262.06;;;7.73;nan
72896;BME280;61036;53.224;6.554;2023-01-19T11:45:02;100259.50;;;7.59;nan
72896;BME280;61036;53.224;6.554;2023-01-19T11:47:34;100258.59;;;7.35;nan
72896;BME280;61036;53.224;6.554;2023-01-19T11:50:12;100262.84;;;7.50;nan
72896;BME280;61036;53.224;6.554;2023-01-19T11:52:58;100259.91;;;7.66;nan
72896;BME280;61036;53.224;6.554;2023-01-19T11:55:52;100257.25;;;7.66;nan
72896;BME280;61036;53.224;6.554;2023-01-19T11:58:19;100257.94;;;8.17;nan
72896;BME280;61036;53.224;6.554;2023-01-19T12:03:32;100256.88;;;7.83;nan
72896;BME280;61036;53.224;6.554;2023-01-19T12:06:20;100262.78;;;7.26;nan
72896;BME280;61036;53.224;6.554;2023-01-19T12:08:54;100264.78;;;6.97;nan
72896;BME280;61036;53.224;6.554;2023-01-19T12:11:26;100274.72;;;6.56;nan
72896;BME280;61036;53.224;6.554;2023-01-19T12:13:56;100277.69;;;6.52;nan
72896;BME280;61036;53.224;6.554;2023-01-19T12:16:23;100277.25;;;6.18;nan
72896;BME280;61036;53.224;6.554;2023-01-19T12:18:58;100282.56;;;6.05;nan
72896;BME280;61036;53.224;6.554;2023-01-19T12:21:27;100289.56;;;5.93;nan
72896;BME280;61036;53.224;6.554;2023-01-19T12:24:02;100290.22;;;5.68;nan
72896;BME280;61036;53.224;6.554;2023-01-19T12:26:34;100285.63;;;5.70;nan
72896;BME280;61036;53.224;6.554;2023-01-19T12:29:18;100289.28;;;5.84;nan
72896;BME280;61036;53.224;6.554;2023-01-19T12:40:00;100296.69;;;6.07;nan
72896;BME280;61036;53.224;6.554;2023-01-19T12:42:28;100300.53;;;6.30;nan
72896;BME280;61036;53.224;6.554;2023-01-19T12:45:12;100300.69;;;6.41;nan
72896;BME280;61036;53.224;6.554;2023-01-19T12:47:39;100299.53;;;6.46;nan
72896;BME280;61036;53.224;6.554;2023-01-19T12:50:16;100304.84;;;6.33;nan
72896;BME280;61036;53.224;6.554;2023-01-19T12:52:48;100304.88;;;6.46;nan
72896;BME280;61036;53.224;6.554;2023-01-19T12:57:55;100305.13;;;6.55;nan
72896;BME280;61036;53.224;6.554;2023-01-19T13:02:55;100305.38;;;6.65;nan
72896;BME280;61036;53.224;6.554;2023-01-19T13:13:30;100304.63;;;6.09;nan
72896;BME280;61036;53.224;6.554;2023-01-19T13:19:01;100312.25;;;5.86;nan
72896;BME280;61036;53.224;6.554;2023-01-19T13:21:40;100311.13;;;5.90;nan
72896;BME280;61036;53.224;6.554;2023-01-19T13:24:10;100317.94;;;5.82;nan
72896;BME280;61036;53.224;6.554;2023-01-19T13:26:51;100311.88;;;5.92;nan
72896;BME280;61036;53.224;6.554;2023-01-19T13:29:28;100312.97;;;5.90;nan
72896;BME280;61036;53.224;6.554;2023-01-19T13:32:28;100315.41;;;6.07;nan
72896;BME280;61036;53.224;6.554;2023-01-19T13:34:53;100322.03;;;5.87;nan
72896;BME280;61036;53.224;6.554;2023-01-19T13:37:23;100326.94;;;5.81;nan
72896;BME280;61036;53.224;6.554;2023-01-19T13:39:52;100320.81;;;5.36;nan
72896;BME280;61036;53.224;6.554;2023-01-19T13:42:45;100322.81;;;5.46;nan
72896;BME280;61036;53.224;6.554;2023-01-19T13:45:32;100330.59;;;5.07;nan
72896;BME280;61036;53.224;6.554;2023-01-19T13:48:00;100339.41;;;5.09;nan
72896;BME280;61036;53.224;6.554;2023-01-19T13:51:08;100340.63;;;5.17;nan
72896;BME280;61036;53.224;6.554;2023-01-19T13:53:52;100340.28;;;5.23;nan
72896;BME280;61036;53.224;6.554;2023-01-19T13:56:19;100347.09;;;4.99;nan
72896;BME280;61036;53.224;6.554;2023-01-19T13:59:04;100348.28;;;5.09;nan
72896;BME280;61036;53.224;6.554;2023-01-19T14:01:35;100361.94;;;4.89;nan
72896;BME280;61036;53.224;6.554;2023-01-19T14:04:04;100361.16;;;4.87;nan
72896;BME280;61036;53.224;6.554;2023-01-19T14:06:37;100372.16;;;4.96;nan
72896;BME280;61036;53.224;6.554;2023-01-19T14:09:09;100370.28;;;4.98;nan
72896;BME280;61036;53.224;6.554;2023-01-19T14:11:39;100380.03;;;4.99;nan
72896;BME280;61036;53.224;6.554;2023-01-19T14:14:21;100373.06;;;4.97;nan
72896;BME280;61036;53.224;6.554;2023-01-19T14:16:47;100378.59;;;4.78;nan
72896;BME280;61036;53.224;6.554;2023-01-19T14:19:12;100378.91;;;4.57;nan
72896;BME280;61036;53.224;6.554;2023-01-19T14:21:39;100384.22;;;4.73;nan
72896;BME280;61036;53.224;6.554;2023-01-19T14:24:06;100393.22;;;4.87;nan
72896;BME280;61036;53.224;6.554;2023-01-19T14:29:31;100408.97;;;4.61;nan
72896;BME280;61036;53.224;6.554;2023-01-19T14:43:43;100410.69;;;4.62;nan
72896;BME280;61036;53.224;6.554;2023-01-19T14:46:18;100425.59;;;4.34;nan
72896;BME280;61036;53.224;6.554;2023-01-19T14:48:46;100424.22;;;4.27;nan
72896;BME280;61036;53.224;6.554;2023-01-19T14:51:16;100429.00;;;4.21;nan
72896;BME280;61036;53.224;6.554;2023-01-19T14:53:46;100428.56;;;3.97;nan
72896;BME280;61036;53.224;6.554;2023-01-19T14:56:29;100429.84;;;3.89;nan